Date,TemperatureHighF,TemperatureAvgF,TemperatureLowF,DewpointHighF,DewpointAvgF,DewpointLowF,HumidityHigh,HumidityAvg,HumidityLow,PressureMaxIn,PressureMinIn,WindSpeedMaxMPH,WindSpeedAvgMPH,GustSpeedMaxMPH,PrecipitationSumIn
2013-1-1,76.7,64.4,51.9,61.6,57.3,50.3,96,79,54,30.16,29.98,16,1,16,0.00
2013-1-2,79.4,67.3,57.0,65.7,61.0,55.3,95,82,57,30.01,29.92,14,1,14,0.00
2013-1-3,69.8,63.8,59.5,66.0,61.7,58.7,98,93,84,30.10,29.96,21,2,21,0.00
2013-1-4,63.2,60.7,57.5,61.8,59.7,56.7,97,97,94,30.20,30.08,17,3,17,0.05
2013-1-5,73.9,63.9,56.3,63.6,59.4,54.0,97,86,66,30.22,30.13,13,2,13,0.00
2013-1-6,79.8,68.7,62.1,68.4,63.9,60.7,96,86,63,30.15,30.00,14,1,14,0.00
2013-1-7,69.9,65.6,59.6,63.7,60.3,55.9,95,83,69,30.15,30.06,17,3,17,0.00
2013-1-8,78.5,71.5,66.6,69.0,67.4,63.4,96,87,70,30.17,30.06,9,0,9,0.00
2013-1-9,80.5,72.8,67.4,71.2,69.1,66.5,98,89,69,30.26,30.15,15,2,15,0.00
2013-1-10,80.1,71.5,65.6,69.6,66.5,64.0,98,85,62,30.26,30.18,16,1,16,0.00
2013-1-11,79.9,71.0,61.6,70.6,65.8,60.7,98,85,60,30.23,30.12,17,2,17,0.00
2013-1-12,80.5,69.9,59.8,69.0,63.9,59.0,98,83,56,30.15,30.06,10,0,10,0.00
2013-1-13,80.3,71.0,60.7,68.1,64.2,59.6,97,80,56,30.11,30.02,15,2,15,0.00
2013-1-14,80.1,69.9,59.6,67.8,63.8,58.5,97,83,57,30.14,30.08,14,1,14,0.00
2013-1-15,80.1,70.7,62.7,69.7,65.1,61.5,97,84,60,30.10,30.01,15,2,15,0.00
2013-1-16,81.8,70.6,60.1,68.5,63.8,58.8,97,81,48,30.06,29.96,15,1,15,0.00
2013-1-17,81.4,66.8,53.9,68.1,60.4,45.8,96,81,55,30.03,29.86,24,3,24,0.00
2013-1-18,68.8,56.3,43.2,60.3,49.0,35.5,87,77,65,30.20,30.02,28,4,28,0.04
2013-1-19,73.5,67.4,63.4,63.9,59.9,55.5,90,77,66,30.21,30.08,18,2,18,0.00
2013-1-20,70.1,64.1,59.5,64.9,59.8,56.2,95,86,75,30.10,30.01,21,2,21,0.00
2013-1-21,71.6,65.0,59.9,62.3,59.4,56.3,93,83,67,30.03,29.94,12,2,15,0.00
2013-1-22,64.8,58.2,48.2,56.6,47.1,41.2,87,67,53,30.20,29.99,22,3,22,0.00
2013-1-23,64.5,53.9,45.2,49.8,43.2,34.8,89,68,53,30.29,30.20,17,2,17,0.00
2013-1-24,72.0,57.6,43.9,52.1,46.5,41.7,92,70,42,30.25,30.15,13,1,13,0.00
2013-1-25,72.3,59.9,49.8,56.0,51.6,48.2,97,76,48,30.23,30.11,9,0,9,0.00
2013-1-26,74.9,59.7,45.4,57.5,51.5,42.9,92,77,42,30.20,30.10,6,0,9,0.00
2013-1-27,75.8,64.3,52.0,64.1,58.2,51.2,98,82,54,30.26,30.16,13,2,13,0.00
2013-1-28,77.4,70.1,65.0,65.8,63.6,61.6,93,80,64,30.29,30.20,15,1,15,0.00
2013-1-29,79.8,71.3,64.5,68.4,66.1,63.5,98,85,65,30.21,30.07,21,4,21,0.00
2013-1-30,83.4,73.5,65.6,67.4,63.6,59.6,97,73,47,30.07,29.84,22,5,22,0.00
2013-1-31,69.3,59.1,49.1,65.4,44.9,29.1,92,62,28,30.16,29.84,18,3,18,0.04
2013-2-1,67.3,54.4,45.7,40.5,32.3,25.9,76,45,25,30.27,30.15,14,2,14,0.00
2013-2-2,70.8,56.1,41.8,47.3,40.1,31.8,86,59,26,30.23,30.08,9,0,9,0.00
2013-2-3,70.8,55.8,44.3,52.1,45.1,39.0,94,70,40,30.11,30.00,17,1,17,0.00
2013-2-4,70.3,54.7,40.5,49.6,43.4,36.0,92,68,40,30.07,29.97,10,0,10,0.00
2013-2-5,75.8,59.7,42.2,58.1,49.1,40.6,95,72,38,30.03,29.92,12,0,12,0.00
2013-2-6,76.5,66.2,56.6,66.1,60.4,54.0,92,82,64,30.06,29.96,11,1,11,0.00
2013-2-7,78.3,69.8,59.9,66.9,62.5,57.9,95,79,54,30.03,29.81,23,4,23,0.00
2013-2-8,79.4,67.7,60.2,63.5,60.1,54.3,96,79,44,30.02,29.80,19,2,19,0.00
2013-2-9,71.5,63.3,54.1,58.7,55.8,51.8,95,78,61,30.16,30.01,16,3,16,0.00
2013-2-10,76.0,68.4,62.7,60.9,57.3,54.3,80,68,52,30.23,30.13,23,4,23,0.00
2013-2-11,79.8,70.3,58.6,65.5,61.9,56.7,94,76,53,30.16,30.03,18,4,18,0.00
2013-2-12,84.9,72.5,64.0,68.4,64.1,59.5,95,77,45,30.05,29.89,18,3,18,0.00
2013-2-13,87.4,72.5,63.1,69.1,65.0,60.7,96,80,44,29.92,29.75,23,4,23,0.46
2013-2-14,66.3,62.2,58.3,63.4,60.4,57.3,97,94,87,29.98,29.87,12,1,12,0.20
2013-2-15,68.4,58.8,53.6,58.5,55.4,52.8,98,89,68,30.01,29.90,10,1,10,0.05
2013-2-16,69.1,57.7,48.8,53.7,44.1,24.5,94,64,32,30.04,29.82,22,3,22,0.01
2013-2-17,52.6,43.9,35.2,34.8,20.4,8.6,79,41,18,30.27,30.04,22,3,22,0.00
2013-2-18,67.6,51.6,34.0,50.3,38.9,22.2,88,65,40,30.29,30.15,13,1,13,0.00
2013-2-19,79.8,63.3,47.1,56.7,50.2,44.3,92,66,31,30.15,29.99,20,2,20,0.00
2013-2-20,70.3,63.1,57.2,59.1,56.0,53.5,92,78,61,30.07,29.98,16,2,16,0.00
2013-2-21,79.8,69.9,61.6,66.9,62.7,57.1,91,78,58,30.05,29.95,11,1,11,0.00
2013-2-22,80.9,72.0,63.4,70.1,67.4,62.2,98,86,67,30.04,29.96,21,5,21,0.00
2013-2-23,87.2,75.5,67.8,70.5,66.0,62.0,97,75,43,29.97,29.81,21,3,21,0.02
2013-2-24,78.1,68.7,64.8,70.7,66.5,63.6,97,93,76,29.91,29.81,13,1,13,0.18
2013-2-25,85.9,73.5,65.0,72.2,67.3,60.9,99,84,44,29.88,29.72,17,2,17,0.06
2013-2-26,79.9,73.3,63.7,72.0,68.2,60.7,95,85,70,29.79,29.69,24,4,24,0.00
2013-2-27,76.0,65.5,56.3,62.0,57.5,48.8,96,77,47,29.90,29.79,13,1,13,0.00
2013-2-28,63.4,52.9,48.2,51.2,48.4,46.0,94,85,61,29.93,29.85,14,1,14,0.00
2013-3-1,57.4,54.4,52.9,40.0,38.5,36.2,61,55,45,29.92,29.87,11,2,11,0.00
2013-3-2,60.5,50.8,40.2,39.8,33.6,23.9,76,54,26,29.95,29.85,21,2,21,0.00
2013-3-3,56.2,44.0,33.8,33.2,30.5,28.5,86,61,37,30.09,29.91,23,3,23,0.00
2013-3-4,60.4,47.1,32.7,40.9,32.4,18.6,92,62,25,30.16,30.06,14,1,14,0.00
2013-3-5,77.9,60.2,41.5,53.3,42.5,35.2,94,58,24,30.12,29.93,18,2,18,0.00
2013-3-6,70.8,60.4,48.8,60.4,39.6,22.9,93,53,18,30.06,29.85,22,4,22,0.00
2013-3-7,62.3,51.6,40.8,47.8,40.4,31.0,91,66,51,30.14,30.03,20,3,20,0.00
2013-3-8,68.3,55.7,42.5,50.7,45.8,37.6,97,72,39,30.15,30.07,16,2,16,0.00
2013-3-9,72.0,60.0,44.9,56.9,49.8,42.9,94,71,47,30.17,30.06,13,1,13,0.00
2013-3-10,76.0,64.4,53.6,59.5,54.6,51.0,92,73,45,30.12,30.05,15,1,15,0.00
2013-3-11,77.0,67.4,56.5,63.2,57.9,53.5,92,73,48,30.07,29.88,22,5,22,0.00
2013-3-12,72.1,67.3,58.9,67.9,63.0,56.7,96,86,75,29.95,29.82,18,3,18,0.17
2013-3-13,68.8,59.6,49.9,56.9,46.2,32.7,96,65,28,30.09,29.94,21,4,21,0.00
2013-3-14,60.1,53.0,46.8,45.0,39.5,29.9,86,61,48,30.18,30.07,26,4,26,0.00
2013-3-15,68.6,53.9,40.1,46.0,38.3,26.5,96,62,24,30.21,30.09,15,1,15,0.00
2013-3-16,78.8,60.7,42.8,55.4,45.4,37.3,93,63,24,30.12,29.98,16,2,16,0.00
2013-3-17,79.0,63.8,47.9,60.1,52.5,44.5,92,69,39,30.09,29.95,19,3,22,0.00
2013-3-18,80.9,72.0,64.0,65.9,61.5,57.4,86,70,52,30.01,29.86,18,3,18,0.00
2013-3-19,86.1,72.3,64.0,65.7,63.1,58.6,95,75,41,29.95,29.83,13,1,14,0.00
2013-3-20,73.9,67.3,58.4,66.8,63.4,56.7,96,87,76,29.92,29.74,22,1,22,1.07
2013-3-21,69.6,59.0,48.5,57.5,43.3,28.9,98,63,24,29.89,29.78,17,2,17,0.01
2013-3-22,76.3,61.1,45.2,62.7,49.7,41.3,92,70,35,29.95,29.84,14,1,14,0.06
2013-3-23,86.3,73.0,65.8,71.1,66.9,62.2,96,83,55,29.93,29.69,17,2,17,0.00
2013-3-24,85.1,72.8,65.2,72.6,68.6,59.9,96,88,59,29.81,29.58,38,3,38,0.86
2013-3-25,74.0,65.4,53.8,68.6,46.4,27.6,96,58,20,29.96,29.64,17,2,18,0.01
2013-3-26,62.0,53.5,45.7,40.5,29.3,19.2,66,41,20,30.16,29.95,24,3,24,0.00
2013-3-27,62.3,50.3,39.5,41.6,34.0,26.4,81,55,27,30.22,30.14,11,2,13,0.00
2013-3-28,67.3,53.7,40.3,45.4,40.1,30.3,94,65,28,30.22,30.14,14,1,14,0.00
2013-3-29,71.5,58.3,44.2,48.2,41.2,31.0,94,60,23,30.26,30.15,8,1,13,0.00
2013-3-30,76.7,62.4,46.8,55.5,49.4,43.1,88,65,36,30.20,30.07,22,3,22,0.00
2013-3-31,82.8,69.0,59.0,64.7,56.3,48.9,83,66,32,30.13,29.95,20,4,21,0.00
2013-4-1,86.7,73.6,62.7,65.8,60.8,57.0,88,67,40,29.97,29.84,16,1,16,0.00
2013-4-2,79.0,69.4,60.9,63.6,60.5,56.8,97,75,49,30.04,29.93,16,2,16,0.00
2013-4-3,82.6,72.9,65.6,69.8,65.1,59.0,95,78,49,30.03,29.93,13,3,20,0.19
2013-4-4,75.3,70.7,66.4,70.3,67.0,61.5,95,88,73,30.00,29.80,22,3,22,0.07
2013-4-5,78.8,66.7,59.3,69.1,62.7,56.0,96,87,65,29.92,29.74,16,3,23,0.05
2013-4-6,73.2,64.5,54.4,62.6,57.7,51.9,92,79,65,30.08,29.91,23,5,23,0.00
2013-4-7,79.6,69.2,58.3,63.0,60.5,57.2,97,76,51,30.12,29.99,9,1,15,0.00
2013-4-8,81.6,70.7,58.4,66.6,62.2,57.3,97,77,51,30.10,30.01,11,1,13,0.00
2013-4-9,81.6,73.7,69.1,67.4,64.2,58.8,92,74,50,30.14,30.03,16,2,17,0.00
2013-4-10,83.4,73.9,64.3,70.9,66.6,61.7,95,79,56,30.08,29.95,15,4,19,0.00
2013-4-11,83.4,77.2,73.2,71.8,70.4,68.4,90,80,64,29.96,29.80,22,9,29,0.00
2013-4-12,87.8,79.0,73.5,73.1,70.3,65.7,92,76,50,29.86,29.75,17,4,22,0.00
2013-4-13,79.4,73.6,70.4,70.4,66.0,60.5,93,78,61,29.94,29.82,13,2,17,0.00
2013-4-14,86.7,75.7,68.6,73.8,69.3,63.7,96,81,63,29.93,29.77,24,3,25,0.73
2013-4-15,85.7,74.3,65.3,69.8,65.2,61.4,96,76,47,30.03,29.85,12,1,12,0.01
2013-4-16,84.0,76.6,71.8,71.5,69.1,65.8,94,79,60,30.10,30.00,13,2,14,0.00
2013-4-17,82.4,74.5,66.4,70.2,67.0,64.5,96,78,60,30.09,30.01,10,1,15,0.00
2013-4-18,85.5,77.0,66.4,71.8,68.2,64.6,95,75,55,30.03,29.93,18,4,18,0.00
2013-4-19,87.2,78.6,71.3,73.6,71.1,65.9,93,79,52,29.98,29.84,28,6,28,0.17
2013-4-20,72.5,67.5,63.4,70.1,63.7,58.3,95,88,81,30.08,29.90,19,4,19,0.01
2013-4-21,78.3,71.0,62.6,73.3,67.5,58.3,97,89,78,30.07,29.94,19,2,19,1.54
2013-4-22,77.7,71.1,67.9,69.7,67.1,64.4,96,88,71,30.01,29.93,20,3,20,0.13
2013-4-23,77.4,70.4,64.3,67.3,63.8,60.3,96,81,61,30.07,29.94,21,4,21,0.00
2013-4-24,81.8,70.7,58.1,65.7,61.1,56.4,96,74,51,30.09,30.01,12,1,12,0.00
2013-4-25,85.5,74.3,61.8,66.6,63.1,58.6,95,70,44,30.15,30.04,13,1,13,0.00
2013-4-26,83.8,74.2,64.8,68.6,65.4,61.9,95,76,51,30.19,30.10,15,2,15,0.00
2013-4-27,82.4,75.0,69.6,68.8,66.0,62.3,90,74,54,30.18,30.08,14,1,14,0.00
2013-4-28,81.4,74.9,71.1,67.0,64.8,61.7,85,72,53,30.09,29.97,17,3,17,0.00
2013-4-29,84.7,75.1,67.6,69.4,65.7,59.7,95,74,47,29.99,29.86,23,4,23,0.44
2013-4-30,84.1,73.2,66.1,72.8,68.2,62.3,98,86,50,29.95,29.88,13,0,13,0.05
2013-5-1,80.9,73.3,66.9,71.5,68.5,62.2,93,85,67,29.97,29.89,11,0,11,0.03
2013-5-2,75.3,71.5,66.6,72.4,68.2,64.9,96,89,82,29.90,29.77,17,2,17,0.77
2013-5-3,75.3,70.1,67.9,73.2,68.3,66.1,96,94,89,29.80,29.57,31,3,31,1.11
2013-5-4,80.7,73.0,67.9,71.3,68.7,66.4,96,87,71,29.72,29.61,16,2,16,0.57
2013-5-5,79.2,70.6,61.6,68.8,55.3,43.3,93,63,30,29.87,29.68,18,2,18,0.00
2013-5-6,81.1,69.1,58.9,62.2,54.8,50.5,91,63,38,29.93,29.83,13,1,13,0.00
2013-5-7,81.6,67.7,53.8,58.8,54.9,51.8,94,66,38,29.99,29.89,13,1,13,0.00
2013-5-8,84.0,71.7,57.6,66.3,59.0,54.5,96,68,38,30.07,29.96,10,0,10,0.00
2013-5-9,84.0,72.7,61.2,68.2,62.7,55.5,95,73,40,30.10,30.02,13,1,13,0.00
2013-5-10,87.2,76.7,64.8,72.9,68.4,63.3,96,77,52,30.08,29.95,21,3,21,0.00
2013-5-11,91.4,76.8,68.4,72.8,69.3,66.2,94,80,46,30.01,29.89,15,1,15,0.36
2013-5-12,89.9,77.8,68.6,74.1,70.0,65.3,96,79,46,29.98,29.86,14,1,14,0.00
2013-5-13,79.2,72.3,67.4,70.7,61.7,54.7,94,71,48,30.07,29.92,20,3,20,0.00
2013-5-14,80.1,70.2,57.5,59.7,55.3,49.4,91,62,39,30.15,30.06,15,2,15,0.00
2013-5-15,83.2,72.7,59.5,62.2,58.7,54.1,93,64,40,30.16,30.06,12,1,12,0.00
2013-5-16,84.0,74.0,62.7,64.7,61.6,57.5,91,67,42,30.08,29.99,14,1,14,0.00
2013-5-17,86.7,76.0,64.3,68.9,65.7,61.5,92,72,51,30.06,29.98,15,2,15,0.00
2013-5-18,87.4,78.5,69.1,72.2,69.8,66.8,94,75,56,30.07,29.98,17,3,17,0.00
2013-5-19,84.3,77.5,73.5,74.8,70.4,67.2,94,79,65,30.05,29.96,20,3,20,0.09
2013-5-20,86.7,77.9,72.3,72.7,71.0,68.1,93,80,60,30.04,29.95,18,1,18,0.01
2013-5-21,80.9,74.0,69.4,74.8,70.8,67.3,95,90,74,30.00,29.89,19,1,19,0.83
2013-5-22,84.9,75.7,69.6,73.9,70.7,68.0,96,85,68,29.92,29.85,13,1,13,0.51
2013-5-23,88.8,76.7,68.4,74.2,70.1,65.9,95,81,53,29.93,29.85,17,1,17,0.46
2013-5-24,91.2,78.1,67.8,75.5,67.8,61.3,97,74,39,30.04,29.90,13,1,13,0.00
2013-5-25,84.0,77.3,72.3,69.6,64.0,56.8,83,64,47,30.15,30.02,18,2,18,0.00
2013-5-26,82.2,74.9,67.6,63.1,60.3,56.4,77,61,48,30.17,30.09,13,1,13,0.00
2013-5-27,84.5,77.1,72.0,67.0,63.8,60.9,76,64,48,30.15,30.07,14,1,14,0.00
2013-5-28,86.7,78.7,73.3,71.9,69.3,66.2,85,74,58,30.10,30.04,15,2,15,0.00
2013-5-29,85.9,79.0,75.4,73.3,72.0,68.0,89,80,62,30.09,30.02,18,2,18,0.00
2013-5-30,84.3,78.7,73.2,75.1,72.0,68.4,93,80,68,30.09,30.00,22,2,22,0.23
2013-5-31,87.6,79.2,75.8,73.8,71.0,68.9,86,76,59,30.07,30.00,18,2,18,0.00
2013-6-1,84.0,78.5,76.3,77.6,73.3,70.4,94,84,74,30.03,29.94,19,2,19,0.48
2013-6-2,89.7,79.1,73.3,77.1,73.8,69.9,94,85,60,29.97,29.83,16,2,16,0.11
2013-6-3,88.4,78.4,73.2,76.9,73.8,71.8,96,87,63,29.95,29.83,17,1,17,0.19
2013-6-4,86.7,77.8,73.0,75.9,72.7,69.8,96,85,60,29.99,29.89,12,1,21,0.00
2013-6-5,88.2,78.9,73.9,76.9,73.1,70.8,92,83,62,29.99,29.87,10,1,15,0.53
2013-6-6,79.6,76.4,73.2,76.7,73.1,69.9,95,90,83,29.87,29.63,20,1,20,0.00
2013-6-7,89.7,80.8,73.0,74.8,72.4,70.4,96,77,57,29.89,29.70,14,1,14,0.02
2013-6-8,90.5,78.0,71.5,75.6,72.5,70.2,97,84,60,30.03,29.89,23,1,23,0.03
2013-6-9,88.6,79.0,71.1,78.2,73.0,70.2,98,83,61,30.06,29.98,21,3,21,12.90
2013-6-10,88.6,81.4,76.3,77.4,74.8,71.2,92,81,65,30.05,29.97,17,4,17,0.06
2013-6-11,89.7,78.2,72.1,77.4,73.6,69.7,95,86,59,30.03,29.96,8,0,10,0.24
2013-6-12,92.5,80.2,70.4,75.9,72.3,69.2,96,79,54,30.03,29.95,13,1,13,0.00
2013-6-13,95.1,82.0,73.0,77.5,72.9,69.9,93,76,45,29.99,29.83,14,1,14,0.05
2013-6-14,93.8,82.6,73.5,76.4,71.0,65.8,96,71,43,29.87,29.78,14,0,14,0.00
2013-6-15,87.8,80.3,75.8,78.1,72.9,69.8,91,79,61,30.02,29.86,16,1,16,15.29
2013-6-16,88.8,81.9,78.3,75.9,74.2,71.9,87,78,64,30.04,29.98,15,2,16,0.00
2013-6-17,92.9,82.6,78.5,77.4,74.9,68.9,91,78,49,30.03,29.93,17,2,17,0.00
2013-6-18,93.8,82.0,73.3,77.8,73.4,68.4,95,77,45,30.03,29.89,18,2,18,0.17
2013-6-19,91.8,81.0,73.7,78.2,73.2,68.2,93,78,57,29.99,29.89,18,1,18,0.01
2013-6-20,92.1,78.3,70.4,75.1,71.5,66.7,93,81,55,30.05,29.95,28,1,28,2.05
2013-6-21,89.0,76.2,70.6,75.9,71.6,67.7,95,86,60,30.06,29.99,30,0,30,3.16
2013-6-22,89.9,80.4,72.8,76.2,72.0,67.1,96,77,51,30.07,30.00,12,0,12,24.60
2013-6-23,87.4,80.0,74.2,77.0,73.9,70.8,92,82,66,30.10,30.01,13,1,13,0.12
2013-6-24,90.3,82.8,77.6,75.9,73.8,71.4,89,75,58,30.13,30.04,15,1,15,0.00
2013-6-25,89.5,82.4,75.1,76.1,73.2,68.9,90,75,54,30.11,30.00,14,1,14,0.00
2013-6-26,90.3,80.0,74.9,80.0,74.7,71.4,94,84,62,30.03,29.96,14,1,16,0.35
2013-6-27,91.4,79.4,72.0,75.8,72.7,69.9,95,82,54,29.99,29.86,15,1,15,0.44
2013-6-28,92.9,79.4,74.0,77.4,72.7,69.0,95,82,53,29.92,29.79,19,1,19,0.00
2013-6-29,90.5,79.0,74.7,76.1,73.4,72.1,93,84,58,29.83,29.78,17,2,17,0.01